sensor_id;sensor_type;location;lat;lon;timestamp;temperature;humidity
1956;DHT22;978;48.314;11.562;2022-08-19T00:01:36;22.90;85.50
1956;DHT22;978;48.314;11.562;2022-08-19T00:04:06;22.90;85.50
1956;DHT22;978;48.314;11.562;2022-08-19T00:06:35;22.80;85.40
1956;DHT22;978;48.314;11.562;2022-08-19T00:09:07;22.80;85.50
1956;DHT22;978;48.314;11.562;2022-08-19T00:11:36;22.90;85.50
1956;DHT22;978;48.314;11.562;2022-08-19T00:14:06;22.90;85.50
1956;DHT22;978;48.314;11.562;2022-08-19T00:16:35;22.80;85.50
1956;DHT22;978;48.314;11.562;2022-08-19T00:19:03;22.90;85.50
1956;DHT22;978;48.314;11.562;2022-08-19T00:21:31;22.90;85.50
1956;DHT22;978;48.314;11.562;2022-08-19T00:23:58;22.90;85.50
1956;DHT22;978;48.314;11.562;2022-08-19T00:26:27;22.90;85.50
1956;DHT22;978;48.314;11.562;2022-08-19T00:28:55;22.90;85.50
1956;DHT22;978;48.314;11.562;2022-08-19T00:31:22;22.80;85.50
1956;DHT22;978;48.314;11.562;2022-08-19T00:33:50;22.90;85.50
1956;DHT22;978;48.314;11.562;2022-08-19T00:36:17;22.90;85.50
1956;DHT22;978;48.314;11.562;2022-08-19T00:38:44;22.90;85.50
1956;DHT22;978;48.314;11.562;2022-08-19T00:41:14;22.90;85.50
1956;DHT22;978;48.314;11.562;2022-08-19T00:43:57;22.80;85.50
1956;DHT22;978;48.314;11.562;2022-08-19T00:46:24;22.80;85.50
1956;DHT22;978;48.314;11.562;2022-08-19T00:48:51;22.90;85.50
1956;DHT22;978;48.314;11.562;2022-08-19T00:51:17;22.90;85.50
1956;DHT22;978;48.314;11.562;2022-08-19T00:53:44;22.90;85.50
1956;DHT22;978;48.314;11.562;2022-08-19T00:56:12;22.80;85.50
1956;DHT22;978;48.314;11.562;2022-08-19T00:58:43;22.90;85.50
1956;DHT22;978;48.314;11.562;2022-08-19T01:01:11;22.90;85.50
1956;DHT22;978;48.314;11.562;2022-08-19T01:03:40;22.90;85.50
1956;DHT22;978;48.314;11.562;2022-08-19T01:06:07;22.80;85.40
1956;DHT22;978;48.314;11.562;2022-08-19T01:08:37;22.90;85.50
1956;DHT22;978;48.314;11.562;2022-08-19T01:11:06;22.80;85.40
1956;DHT22;978;48.314;11.562;2022-08-19T01:13:36;22.80;85.50
1956;DHT22;978;48.314;11.562;2022-08-19T01:16:08;22.90;85.50
1956;DHT22;978;48.314;11.562;2022-08-19T01:18:41;22.90;85.50
1956;DHT22;978;48.314;11.562;2022-08-19T01:21:16;22.80;85.40
1956;DHT22;978;48.314;11.562;2022-08-19T01:23:46;22.90;85.50
1956;DHT22;978;48.314;11.562;2022-08-19T01:26:16;22.80;85.40
1956;DHT22;978;48.314;11.562;2022-08-19T01:28:45;22.80;85.40
1956;DHT22;978;48.314;11.562;2022-08-19T01:31:18;22.90;85.50
1956;DHT22;978;48.314;11.562;2022-08-19T01:33:47;22.80;85.40
1956;DHT22;978;48.314;11.562;2022-08-19T01:36:23;22.80;85.50
1956;DHT22;978;48.314;11.562;2022-08-19T01:38:52;22.80;85.40
1956;DHT22;978;48.314;11.562;2022-08-19T01:41:19;22.90;85.50
1956;DHT22;978;48.314;11.562;2022-08-19T01:43:49;22.80;85.40
1956;DHT22;978;48.314;11.562;2022-08-19T01:46:16;22.80;85.40
1956;DHT22;978;48.314;11.562;2022-08-19T01:48:46;22.80;85.50
1956;DHT22;978;48.314;11.562;2022-08-19T01:51:13;22.80;85.40
1956;DHT22;978;48.314;11.562;2022-08-19T01:53:42;22.90;85.50
1956;DHT22;978;48.314;11.562;2022-08-19T01:56:11;22.90;85.50
1956;DHT22;978;48.314;11.562;2022-08-19T01:58:42;22.80;85.50
1956;DHT22;978;48.314;11.562;2022-08-19T02:01:13;22.90;85.50
1956;DHT22;978;48.314;11.562;2022-08-19T02:03:42;22.80;85.40
1956;DHT22;978;48.314;11.562;2022-08-19T02:06:10;22.80;85.40
1956;DHT22;978;48.314;11.562;2022-08-19T02:08:39;22.80;85.50
1956;DHT22;978;48.314;11.562;2022-08-19T02:11:19;22.90;85.50
1956;DHT22;978;48.314;11.562;2022-08-19T02:13:47;22.80;85.50
1956;DHT22;978;48.314;11.562;2022-08-19T02:16:17;22.80;85.50
1956;DHT22;978;48.314;11.562;2022-08-19T02:18:46;22.90;85.50
1956;DHT22;978;48.314;11.562;2022-08-19T02:21:14;22.90;85.50
1956;DHT22;978;48.314;11.562;2022-08-19T02:23:43;22.90;85.50
1956;DHT22;978;48.314;11.562;2022-08-19T02:26:11;22.80;85.50
1956;DHT22;978;48.314;11.562;2022-08-19T02:28:42;22.80;85.50
1956;DHT22;978;48.314;11.562;2022-08-19T02:31:11;22.80;85.50
1956;DHT22;978;48.314;11.562;2022-08-19T02:33:41;22.80;85.40
1956;DHT22;978;48.314;11.562;2022-08-19T02:36:10;22.80;85.50
1956;DHT22;978;48.314;11.562;2022-08-19T02:38:37;22.80;85.40
1956;DHT22;978;48.314;11.562;2022-08-19T02:41:14;22.80;85.50
1956;DHT22;978;48.314;11.562;2022-08-19T02:43:44;22.80;85.50
1956;DHT22;978;48.314;11.562;2022-08-19T02:46:14;22.80;85.50
1956;DHT22;978;48.314;11.562;2022-08-19T02:48:45;22.80;85.50
1956;DHT22;978;48.314;11.562;2022-08-19T02:51:17;22.80;85.40
1956;DHT22;978;48.314;11.562;2022-08-19T02:53:46;22.90;85.50
1956;DHT22;978;48.314;11.562;2022-08-19T02:56:12;22.80;85.40
1956;DHT22;978;48.314;11.562;2022-08-19T02:58:41;22.90;85.50
1956;DHT22;978;48.314;11.562;2022-08-19T03:01:19;22.80;85.50
1956;DHT22;978;48.314;11.562;2022-08-19T03:03:48;22.80;85.40
1956;DHT22;978;48.314;11.562;2022-08-19T03:06:16;22.80;85.50
1956;DHT22;978;48.314;11.562;2022-08-19T03:08:46;22.80;85.40
1956;DHT22;978;48.314;11.562;2022-08-19T03:11:17;22.80;85.50
1956;DHT22;978;48.314;11.562;2022-08-19T03:13:46;22.80;85.50
1956;DHT22;978;48.314;11.562;2022-08-19T03:16:22;22.90;85.50
1956;DHT22;978;48.314;11.562;2022-08-19T03:18:51;22.80;85.40
1956;DHT22;978;48.314;11.562;2022-08-19T03:21:22;22.80;85.40
1956;DHT22;978;48.314;11.562;2022-08-19T03:23:53;22.80;85.50
1956;DHT22;978;48.314;11.562;2022-08-19T03:26:20;22.80;85.40
1956;DHT22;978;48.314;11.562;2022-08-19T03:28:48;22.90;85.50
1956;DHT22;978;48.314;11.562;2022-08-19T03:31:19;22.90;85.50
1956;DHT22;978;48.314;11.562;2022-08-19T03:33:50;22.90;85.50
1956;DHT22;978;48.314;11.562;2022-08-19T03:36:20;22.90;85.50
1956;DHT22;978;48.314;11.562;2022-08-19T03:38:51;22.80;85.50
1956;DHT22;978;48.314;11.562;2022-08-19T03:41:22;22.80;85.50
1956;DHT22;978;48.314;11.562;2022-08-19T03:43:52;22.80;85.50
1956;DHT22;978;48.314;11.562;2022-08-19T03:46:24;22.80;85.50
1956;DHT22;978;48.314;11.562;2022-08-19T03:48:54;22.80;85.50
1956;DHT22;978;48.314;11.562;2022-08-19T03:51:24;22.90;85.50
1956;DHT22;978;48.314;11.562;2022-08-19T03:53:53;22.80;85.40
1956;DHT22;978;48.314;11.562;2022-08-19T03:56:22;22.80;85.40
1956;DHT22;978;48.314;11.562;2022-08-19T03:58:52;22.90;85.50
1956;DHT22;978;48.314;11.562;2022-08-19T04:01:23;22.80;85.50
1956;DHT22;978;48.314;11.562;2022-08-19T04:03:53;22.80;85.40
1956;DHT22;978;48.314;11.562;2022-08-19T04:06:23;22.80;85.40
1956;DHT22;978;48.314;11.562;2022-08-19T04:08:53;22.90;85.50
1956;DHT22;978;48.314;11.562;2022-08-19T04:11:24;22.90;85.50
1956;DHT22;978;48.314;11.562;2022-08-19T04:13:54;22.90;85.50
1956;DHT22;978;48.314;11.562;2022-08-19T04:16:26;22.90;85.50
1956;DHT22;978;48.314;11.562;2022-08-19T04:18:54;22.80;85.40
1956;DHT22;978;48.314;11.562;2022-08-19T04:21:25;22.80;85.50
1956;DHT22;978;48.314;11.562;2022-08-19T04:23:55;22.80;85.40
1956;DHT22;978;48.314;11.562;2022-08-19T04:26:26;22.90;85.50
1956;DHT22;978;48.314;11.562;2022-08-19T04:28:53;22.90;85.50
1956;DHT22;978;48.314;11.562;2022-08-19T04:31:25;22.80;85.40
1956;DHT22;978;48.314;11.562;2022-08-19T04:33:54;22.80;85.40
1956;DHT22;978;48.314;11.562;2022-08-19T04:36:26;22.80;85.40
1956;DHT22;978;48.314;11.562;2022-08-19T04:38:56;22.90;85.50
1956;DHT22;978;48.314;11.562;2022-08-19T04:41:25;22.80;85.40
1956;DHT22;978;48.314;11.562;2022-08-19T04:44:10;22.90;85.50
1956;DHT22;978;48.314;11.562;2022-08-19T04:46:39;22.90;85.50
1956;DHT22;978;48.314;11.562;2022-08-19T04:49:06;22.80;85.40
1956;DHT22;978;48.314;11.562;2022-08-19T04:51:34;22.80;85.50
1956;DHT22;978;48.314;11.562;2022-08-19T04:54:02;22.80;85.40
1956;DHT22;978;48.314;11.562;2022-08-19T04:56:29;22.80;85.40
1956;DHT22;978;48.314;11.562;2022-08-19T04:58:57;22.80;85.50
1956;DHT22;978;48.314;11.562;2022-08-19T05:01:27;22.90;85.50
1956;DHT22;978;48.314;11.562;2022-08-19T05:03:58;22.80;85.50
1956;DHT22;978;48.314;11.562;2022-08-19T05:06:25;22.90;85.50
1956;DHT22;978;48.314;11.562;2022-08-19T05:08:55;22.80;85.50
1956;DHT22;978;48.314;11.562;2022-08-19T05:11:27;22.80;85.50
1956;DHT22;978;48.314;11.562;2022-08-19T05:13:55;22.80;85.50
1956;DHT22;978;48.314;11.562;2022-08-19T05:16:26;22.80;85.50
1956;DHT22;978;48.314;11.562;2022-08-19T05:18:54;22.80;85.50
1956;DHT22;978;48.314;11.562;2022-08-19T05:21:41;22.80;85.50
1956;DHT22;978;48.314;11.562;2022-08-19T05:24:27;22.80;85.50
1956;DHT22;978;48.314;11.562;2022-08-19T05:26:55;22.80;85.50
1956;DHT22;978;48.314;11.562;2022-08-19T05:29:26;22.80;85.40
1956;DHT22;978;48.314;11.562;2022-08-19T05:31:55;22.80;85.50
1956;DHT22;978;48.314;11.562;2022-08-19T05:34:24;22.90;85.50
1956;DHT22;978;48.314;11.562;2022-08-19T05:36:58;22.80;85.40
1956;DHT22;978;48.314;11.562;2022-08-19T05:39:29;22.80;85.40
1956;DHT22;978;48.314;11.562;2022-08-19T05:41:59;22.80;85.40
1956;DHT22;978;48.314;11.562;2022-08-19T05:44:30;22.80;85.40
1956;DHT22;978;48.314;11.562;2022-08-19T05:46:59;22.80;85.50
1956;DHT22;978;48.314;11.562;2022-08-19T05:49:28;22.80;85.50
1956;DHT22;978;48.314;11.562;2022-08-19T05:51:58;22.80;85.50
1956;DHT22;978;48.314;11.562;2022-08-19T05:54:26;22.80;85.50
1956;DHT22;978;48.314;11.562;2022-08-19T05:56:54;22.80;85.50
1956;DHT22;978;48.314;11.562;2022-08-19T05:59:22;22.80;85.40
1956;DHT22;978;48.314;11.562;2022-08-19T06:01:53;22.80;85.40
1956;DHT22;978;48.314;11.562;2022-08-19T06:04:24;22.80;85.40
1956;DHT22;978;48.314;11.562;2022-08-19T06:06:53;22.80;85.40
1956;DHT22;978;48.314;11.562;2022-08-19T06:09:29;22.90;85.50
1956;DHT22;978;48.314;11.562;2022-08-19T06:11:58;22.80;85.40
1956;DHT22;978;48.314;11.562;2022-08-19T06:14:31;22.80;85.50
1956;DHT22;978;48.314;11.562;2022-08-19T06:17:00;22.80;85.50
1956;DHT22;978;48.314;11.562;2022-08-19T06:19:29;22.80;85.50
1956;DHT22;978;48.314;11.562;2022-08-19T06:21:59;22.80;85.40
1956;DHT22;978;48.314;11.562;2022-08-19T06:24:29;22.80;85.50
1956;DHT22;978;48.314;11.562;2022-08-19T06:26:58;22.80;85.50
1956;DHT22;978;48.314;11.562;2022-08-19T06:29:28;22.80;85.40
1956;DHT22;978;48.314;11.562;2022-08-19T06:31:58;22.80;85.50
1956;DHT22;978;48.314;11.562;2022-08-19T06:34:27;22.80;85.50
1956;DHT22;978;48.314;11.562;2022-08-19T06:36:56;22.80;85.40
1956;DHT22;978;48.314;11.562;2022-08-19T06:39:30;22.80;85.50
1956;DHT22;978;48.314;11.562;2022-08-19T06:42:02;22.80;85.40
1956;DHT22;978;48.314;11.562;2022-08-19T06:44:32;22.80;85.40
1956;DHT22;978;48.314;11.562;2022-08-19T06:47:04;22.80;85.50
1956;DHT22;978;48.314;11.562;2022-08-19T06:49:32;22.80;85.40
1956;DHT22;978;48.314;11.562;2022-08-19T06:52:01;22.80;85.40
1956;DHT22;978;48.314;11.562;2022-08-19T06:54:34;22.80;85.50
1956;DHT22;978;48.314;11.562;2022-08-19T06:57:02;22.80;85.40
1956;DHT22;978;48.314;11.562;2022-08-19T06:59:31;22.80;85.40
1956;DHT22;978;48.314;11.562;2022-08-19T07:02:04;22.80;85.40
1956;DHT22;978;48.314;11.562;2022-08-19T07:04:34;22.80;85.40
1956;DHT22;978;48.314;11.562;2022-08-19T07:07:05;22.80;85.50
1956;DHT22;978;48.314;11.562;2022-08-19T07:09:35;22.80;85.40
1956;DHT22;978;48.314;11.562;2022-08-19T07:12:05;22.80;85.50
1956;DHT22;978;48.314;11.562;2022-08-19T07:14:35;22.80;85.50
1956;DHT22;978;48.314;11.562;2022-08-19T07:17:05;22.80;85.50
1956;DHT22;978;48.314;11.562;2022-08-19T07:19:33;22.80;85.60
1956;DHT22;978;48.314;11.562;2022-08-19T07:22:04;22.80;85.60
1956;DHT22;978;48.314;11.562;2022-08-19T07:24:34;22.80;85.60
1956;DHT22;978;48.314;11.562;2022-08-19T07:27:05;22.80;85.70
1956;DHT22;978;48.314;11.562;2022-08-19T07:29:35;22.80;86.30
1956;DHT22;978;48.314;11.562;2022-08-19T07:32:04;22.80;85.70
1956;DHT22;978;48.314;11.562;2022-08-19T07:34:34;22.80;85.80
1956;DHT22;978;48.314;11.562;2022-08-19T07:37:05;22.80;85.80
1956;DHT22;978;48.314;11.562;2022-08-19T07:39:36;22.80;85.80
1956;DHT22;978;48.314;11.562;2022-08-19T07:42:07;22.80;85.90
1956;DHT22;978;48.314;11.562;2022-08-19T07:44:35;22.90;85.90
1956;DHT22;978;48.314;11.562;2022-08-19T07:47:04;22.80;85.90
1956;DHT22;978;48.314;11.562;2022-08-19T07:49:33;22.80;85.90
1956;DHT22;978;48.314;11.562;2022-08-19T07:52:06;22.80;86.00
1956;DHT22;978;48.314;11.562;2022-08-19T07:54:37;22.80;86.00
1956;DHT22;978;48.314;11.562;2022-08-19T07:57:07;22.80;86.00
1956;DHT22;978;48.314;11.562;2022-08-19T07:59:35;22.80;86.10
1956;DHT22;978;48.314;11.562;2022-08-19T08:02:04;22.80;86.10
1956;DHT22;978;48.314;11.562;2022-08-19T08:04:32;22.80;86.10
1956;DHT22;978;48.314;11.562;2022-08-19T08:07:16;22.90;86.20
1956;DHT22;978;48.314;11.562;2022-08-19T08:10:05;22.90;86.20
1956;DHT22;978;48.314;11.562;2022-08-19T08:12:35;22.90;86.30
1956;DHT22;978;48.314;11.562;2022-08-19T08:15:09;22.90;86.30
1956;DHT22;978;48.314;11.562;2022-08-19T08:17:36;22.90;86.30
1956;DHT22;978;48.314;11.562;2022-08-19T08:20:06;22.80;86.30
1956;DHT22;978;48.314;11.562;2022-08-19T08:22:34;22.80;86.30
1956;DHT22;978;48.314;11.562;2022-08-19T08:25:23;22.80;86.30
1956;DHT22;978;48.314;11.562;2022-08-19T08:27:50;22.80;86.40
1956;DHT22;978;48.314;11.562;2022-08-19T08:30:19;22.80;86.40
1956;DHT22;978;48.314;11.562;2022-08-19T08:32:46;22.80;86.40
1956;DHT22;978;48.314;11.562;2022-08-19T08:35:15;22.90;86.50
1956;DHT22;978;48.314;11.562;2022-08-19T08:37:43;22.90;86.50
1956;DHT22;978;48.314;11.562;2022-08-19T08:40:23;22.80;86.50
1956;DHT22;978;48.314;11.562;2022-08-19T08:42:57;22.90;86.60
1956;DHT22;978;48.314;11.562;2022-08-19T08:45:28;22.80;86.50
1956;DHT22;978;48.314;11.562;2022-08-19T08:48:02;22.90;86.60
1956;DHT22;978;48.314;11.562;2022-08-19T08:50:36;22.90;86.60
1956;DHT22;978;48.314;11.562;2022-08-19T08:53:07;22.90;86.60
1956;DHT22;978;48.314;11.562;2022-08-19T08:55:37;22.90;86.60
1956;DHT22;978;48.314;11.562;2022-08-19T08:58:10;22.90;86.70
1956;DHT22;978;48.314;11.562;2022-08-19T09:00:44;22.90;86.70
1956;DHT22;978;48.314;11.562;2022-08-19T09:03:16;22.80;86.70
1956;DHT22;978;48.314;11.562;2022-08-19T09:05:50;22.80;86.70
1956;DHT22;978;48.314;11.562;2022-08-19T09:08:39;22.90;86.80
1956;DHT22;978;48.314;11.562;2022-08-19T09:11:10;22.80;86.80
1956;DHT22;978;48.314;11.562;2022-08-19T09:13:45;22.80;86.80
1956;DHT22;978;48.314;11.562;2022-08-19T09:16:19;22.80;86.80
1956;DHT22;978;48.314;11.562;2022-08-19T09:18:51;22.80;86.90
1956;DHT22;978;48.314;11.562;2022-08-19T09:21:19;22.80;86.80
1956;DHT22;978;48.314;11.562;2022-08-19T09:23:46;22.80;87.50
1956;DHT22;978;48.314;11.562;2022-08-19T09:26:15;22.80;86.90
1956;DHT22;978;48.314;11.562;2022-08-19T09:28:44;22.80;86.90
1956;DHT22;978;48.314;11.562;2022-08-19T09:31:11;22.90;87.00
1956;DHT22;978;48.314;11.562;2022-08-19T09:33:39;22.90;87.00
1956;DHT22;978;48.314;11.562;2022-08-19T09:36:11;22.80;87.00
1956;DHT22;978;48.314;11.562;2022-08-19T09:38:40;22.90;87.10
1956;DHT22;978;48.314;11.562;2022-08-19T09:41:09;22.90;87.10
1956;DHT22;978;48.314;11.562;2022-08-19T09:43:40;22.80;87.10
1956;DHT22;978;48.314;11.562;2022-08-19T09:46:08;22.80;87.10
1956;DHT22;978;48.314;11.562;2022-08-19T09:48:36;22.90;87.10
1956;DHT22;978;48.314;11.562;2022-08-19T09:51:05;22.80;87.00
1956;DHT22;978;48.314;11.562;2022-08-19T09:53:34;22.80;87.10
1956;DHT22;978;48.314;11.562;2022-08-19T09:56:03;22.80;87.10
1956;DHT22;978;48.314;11.562;2022-08-19T09:58:30;22.90;87.20
1956;DHT22;978;48.314;11.562;2022-08-19T10:01:03;22.90;87.20
1956;DHT22;978;48.314;11.562;2022-08-19T10:03:32;22.90;87.20
1956;DHT22;978;48.314;11.562;2022-08-19T10:06:02;22.90;87.30
1956;DHT22;978;48.314;11.562;2022-08-19T10:08:31;22.90;87.30
1956;DHT22;978;48.314;11.562;2022-08-19T10:10:59;22.80;87.30
1956;DHT22;978;48.314;11.562;2022-08-19T10:13:29;22.90;87.30
1956;DHT22;978;48.314;11.562;2022-08-19T10:16:04;22.80;87.30
1956;DHT22;978;48.314;11.562;2022-08-19T10:18:34;22.90;87.40
1956;DHT22;978;48.314;11.562;2022-08-19T10:21:10;22.90;87.40
1956;DHT22;978;48.314;11.562;2022-08-19T10:23:41;22.80;87.40
1956;DHT22;978;48.314;11.562;2022-08-19T10:26:09;22.80;87.40
1956;DHT22;978;48.314;11.562;2022-08-19T10:28:37;22.80;87.40
1956;DHT22;978;48.314;11.562;2022-08-19T10:31:08;22.90;87.50
1956;DHT22;978;48.314;11.562;2022-08-19T10:33:43;22.90;87.50
1956;DHT22;978;48.314;11.562;2022-08-19T10:36:13;22.90;87.50
1956;DHT22;978;48.314;11.562;2022-08-19T10:38:44;22.90;87.50
1956;DHT22;978;48.314;11.562;2022-08-19T10:41:14;22.90;87.50
1956;DHT22;978;48.314;11.562;2022-08-19T10:43:42;22.80;87.50
1956;DHT22;978;48.314;11.562;2022-08-19T10:46:11;22.80;87.60
1956;DHT22;978;48.314;11.562;2022-08-19T10:48:45;22.80;87.50
1956;DHT22;978;48.314;11.562;2022-08-19T10:51:13;22.80;87.60
1956;DHT22;978;48.314;11.562;2022-08-19T10:53:58;22.80;87.60
1956;DHT22;978;48.314;11.562;2022-08-19T10:56:26;22.80;87.60
1956;DHT22;978;48.314;11.562;2022-08-19T10:59:11;22.90;87.60
1956;DHT22;978;48.314;11.562;2022-08-19T11:01:42;22.90;87.70
1956;DHT22;978;48.314;11.562;2022-08-19T11:04:15;22.90;87.70
1956;DHT22;978;48.314;11.562;2022-08-19T11:06:45;22.80;87.70
1956;DHT22;978;48.314;11.562;2022-08-19T11:09:15;22.90;87.70
1956;DHT22;978;48.314;11.562;2022-08-19T11:11:43;22.80;87.80
1956;DHT22;978;48.314;11.562;2022-08-19T11:14:13;22.80;87.80
1956;DHT22;978;48.314;11.562;2022-08-19T11:16:42;22.80;87.80
1956;DHT22;978;48.314;11.562;2022-08-19T11:19:12;22.80;87.80
1956;DHT22;978;48.314;11.562;2022-08-19T11:21:44;22.80;87.80
1956;DHT22;978;48.314;11.562;2022-08-19T11:24:13;22.80;87.80
1956;DHT22;978;48.314;11.562;2022-08-19T11:26:44;22.90;87.90
1956;DHT22;978;48.314;11.562;2022-08-19T11:29:12;22.90;87.90
1956;DHT22;978;48.314;11.562;2022-08-19T11:31:45;22.90;88.00
1956;DHT22;978;48.314;11.562;2022-08-19T11:34:16;22.90;88.00
1956;DHT22;978;48.314;11.562;2022-08-19T11:36:45;22.80;87.90
1956;DHT22;978;48.314;11.562;2022-08-19T11:39:16;22.90;88.10
1956;DHT22;978;48.314;11.562;2022-08-19T11:41:44;22.90;88.10
1956;DHT22;978;48.314;11.562;2022-08-19T11:44:20;22.90;88.10
1956;DHT22;978;48.314;11.562;2022-08-19T11:46:48;22.80;88.10
1956;DHT22;978;48.314;11.562;2022-08-19T11:49:18;22.80;88.10
1956;DHT22;978;48.314;11.562;2022-08-19T11:51:48;22.90;88.20
1956;DHT22;978;48.314;11.562;2022-08-19T11:54:17;22.90;88.20
1956;DHT22;978;48.314;11.562;2022-08-19T11:56:45;22.80;88.20
1956;DHT22;978;48.314;11.562;2022-08-19T11:59:14;22.90;88.20
1956;DHT22;978;48.314;11.562;2022-08-19T12:01:42;22.90;88.20
1956;DHT22;978;48.314;11.562;2022-08-19T12:04:09;22.80;88.20
1956;DHT22;978;48.314;11.562;2022-08-19T12:06:41;22.80;88.20
1956;DHT22;978;48.314;11.562;2022-08-19T12:09:09;22.90;88.30
1956;DHT22;978;48.314;11.562;2022-08-19T12:11:40;22.80;88.20
1956;DHT22;978;48.314;11.562;2022-08-19T12:14:10;22.80;88.30
1956;DHT22;978;48.314;11.562;2022-08-19T12:16:38;22.80;88.30
1956;DHT22;978;48.314;11.562;2022-08-19T12:19:06;22.90;88.30
1956;DHT22;978;48.314;11.562;2022-08-19T12:21:35;22.90;88.40
1956;DHT22;978;48.314;11.562;2022-08-19T12:24:05;22.90;88.30
1956;DHT22;978;48.314;11.562;2022-08-19T12:26:32;22.80;88.40
1956;DHT22;978;48.314;11.562;2022-08-19T12:28:59;22.90;88.40
1956;DHT22;978;48.314;11.562;2022-08-19T12:31:26;22.80;88.30
1956;DHT22;978;48.314;11.562;2022-08-19T12:33:53;22.80;88.40
1956;DHT22;978;48.314;11.562;2022-08-19T12:36:22;22.80;88.40
1956;DHT22;978;48.314;11.562;2022-08-19T12:38:50;22.80;88.40
1956;DHT22;978;48.314;11.562;2022-08-19T12:41:20;22.80;88.40
1956;DHT22;978;48.314;11.562;2022-08-19T12:43:49;22.80;88.40
1956;DHT22;978;48.314;11.562;2022-08-19T12:46:18;22.90;89.00
1956;DHT22;978;48.314;11.562;2022-08-19T12:48:46;22.90;88.50
1956;DHT22;978;48.314;11.562;2022-08-19T12:51:17;22.90;88.50
1956;DHT22;978;48.314;11.562;2022-08-19T12:53:46;22.90;88.50
1956;DHT22;978;48.314;11.562;2022-08-19T12:56:14;22.90;88.50
1956;DHT22;978;48.314;11.562;2022-08-19T12:58:44;22.90;88.50
1956;DHT22;978;48.314;11.562;2022-08-19T13:01:12;22.80;88.50
1956;DHT22;978;48.314;11.562;2022-08-19T13:03:41;22.90;88.60
1956;DHT22;978;48.314;11.562;2022-08-19T13:06:08;22.90;88.60
1956;DHT22;978;48.314;11.562;2022-08-19T13:08:36;22.80;88.50
1956;DHT22;978;48.314;11.562;2022-08-19T13:11:11;22.90;88.60
1956;DHT22;978;48.314;11.562;2022-08-19T13:13:39;22.90;88.60
1956;DHT22;978;48.314;11.562;2022-08-19T13:16:08;22.80;88.60
1956;DHT22;978;48.314;11.562;2022-08-19T13:18:35;22.80;88.60
1956;DHT22;978;48.314;11.562;2022-08-19T13:21:03;22.90;88.60
1956;DHT22;978;48.314;11.562;2022-08-19T13:23:30;22.90;88.60
1956;DHT22;978;48.314;11.562;2022-08-19T13:25:58;22.90;88.60
1956;DHT22;978;48.314;11.562;2022-08-19T13:28:25;22.80;88.60
1956;DHT22;978;48.314;11.562;2022-08-19T13:30:53;22.90;88.60
1956;DHT22;978;48.314;11.562;2022-08-19T13:33:38;22.80;88.50
1956;DHT22;978;48.314;11.562;2022-08-19T13:36:06;22.90;88.80
1956;DHT22;978;48.314;11.562;2022-08-19T13:38:33;22.80;88.40
1956;DHT22;978;48.314;11.562;2022-08-19T13:41:05;22.80;88.40
1956;DHT22;978;48.314;11.562;2022-08-19T13:43:32;22.80;88.40
1956;DHT22;978;48.314;11.562;2022-08-19T13:45:59;22.80;88.40
1956;DHT22;978;48.314;11.562;2022-08-19T13:48:34;22.80;88.40
1956;DHT22;978;48.314;11.562;2022-08-19T13:51:05;22.80;88.40
1956;DHT22;978;48.314;11.562;2022-08-19T13:53:31;22.80;88.40
1956;DHT22;978;48.314;11.562;2022-08-19T13:55:58;22.80;88.40
1956;DHT22;978;48.314;11.562;2022-08-19T13:58:26;22.80;88.40
1956;DHT22;978;48.314;11.562;2022-08-19T14:00:54;22.80;88.30
1956;DHT22;978;48.314;11.562;2022-08-19T14:03:25;22.80;88.30
1956;DHT22;978;48.314;11.562;2022-08-19T14:05:54;22.80;88.30
1956;DHT22;978;48.314;11.562;2022-08-19T14:08:25;22.80;88.30
1956;DHT22;978;48.314;11.562;2022-08-19T14:10:54;22.80;88.20
1956;DHT22;978;48.314;11.562;2022-08-19T14:13:23;22.80;88.20
1956;DHT22;978;48.314;11.562;2022-08-19T14:15:51;22.80;88.20
1956;DHT22;978;48.314;11.562;2022-08-19T14:18:19;22.90;88.20
1956;DHT22;978;48.314;11.562;2022-08-19T14:20:46;22.80;88.80
1956;DHT22;978;48.314;11.562;2022-08-19T14:23:15;22.80;88.20
1956;DHT22;978;48.314;11.562;2022-08-19T14:25:44;22.90;88.30
1956;DHT22;978;48.314;11.562;2022-08-19T14:28:11;22.80;88.20
1956;DHT22;978;48.314;11.562;2022-08-19T14:30:38;22.80;88.10
1956;DHT22;978;48.314;11.562;2022-08-19T14:33:06;22.80;88.10
1956;DHT22;978;48.314;11.562;2022-08-19T14:35:34;22.80;88.10
1956;DHT22;978;48.314;11.562;2022-08-19T14:38:01;22.80;88.10
1956;DHT22;978;48.314;11.562;2022-08-19T14:40:29;22.80;88.10
1956;DHT22;978;48.314;11.562;2022-08-19T14:43:01;22.80;88.10
1956;DHT22;978;48.314;11.562;2022-08-19T14:45:29;22.80;88.10
1956;DHT22;978;48.314;11.562;2022-08-19T14:47:58;22.80;88.10
1956;DHT22;978;48.314;11.562;2022-08-19T14:50:27;22.80;88.70
1956;DHT22;978;48.314;11.562;2022-08-19T14:52:58;22.80;88.10
1956;DHT22;978;48.314;11.562;2022-08-19T14:55:27;22.80;88.10
1956;DHT22;978;48.314;11.562;2022-08-19T14:57:55;22.80;88.10
1956;DHT22;978;48.314;11.562;2022-08-19T15:00:27;22.80;88.00
1956;DHT22;978;48.314;11.562;2022-08-19T15:02:55;22.80;88.00
1956;DHT22;978;48.314;11.562;2022-08-19T15:05:23;22.80;88.00
1956;DHT22;978;48.314;11.562;2022-08-19T15:07:51;22.80;88.00
1956;DHT22;978;48.314;11.562;2022-08-19T15:10:19;22.80;88.60
1956;DHT22;978;48.314;11.562;2022-08-19T15:12:49;22.80;88.00
1956;DHT22;978;48.314;11.562;2022-08-19T15:15:20;22.80;88.00
1956;DHT22;978;48.314;11.562;2022-08-19T15:17:51;22.80;88.00
1956;DHT22;978;48.314;11.562;2022-08-19T15:20:19;22.80;87.90
1956;DHT22;978;48.314;11.562;2022-08-19T15:22:49;22.80;87.90
1956;DHT22;978;48.314;11.562;2022-08-19T15:25:17;22.80;87.90
1956;DHT22;978;48.314;11.562;2022-08-19T15:27:45;22.80;87.90
1956;DHT22;978;48.314;11.562;2022-08-19T15:30:19;22.80;87.90
1956;DHT22;978;48.314;11.562;2022-08-19T15:32:46;22.80;87.90
1956;DHT22;978;48.314;11.562;2022-08-19T15:35:15;22.80;87.90
1956;DHT22;978;48.314;11.562;2022-08-19T15:37:43;22.80;88.50
1956;DHT22;978;48.314;11.562;2022-08-19T15:40:11;22.80;87.90
1956;DHT22;978;48.314;11.562;2022-08-19T15:42:38;22.80;87.90
1956;DHT22;978;48.314;11.562;2022-08-19T15:45:07;22.80;87.90
1956;DHT22;978;48.314;11.562;2022-08-19T15:47:36;22.80;87.90
1956;DHT22;978;48.314;11.562;2022-08-19T15:50:06;22.80;87.90
1956;DHT22;978;48.314;11.562;2022-08-19T15:52:34;22.80;87.90
1956;DHT22;978;48.314;11.562;2022-08-19T15:55:04;22.80;87.80
1956;DHT22;978;48.314;11.562;2022-08-19T15:57:33;22.90;87.90
1956;DHT22;978;48.314;11.562;2022-08-19T16:00:17;22.80;87.80
1956;DHT22;978;48.314;11.562;2022-08-19T16:03:03;22.80;87.80
1956;DHT22;978;48.314;11.562;2022-08-19T16:05:47;22.80;87.80
1956;DHT22;978;48.314;11.562;2022-08-19T16:08:34;22.80;87.80
1956;DHT22;978;48.314;11.562;2022-08-19T16:11:02;22.80;87.80
1956;DHT22;978;48.314;11.562;2022-08-19T16:13:30;22.80;87.80
1956;DHT22;978;48.314;11.562;2022-08-19T16:15:58;22.80;87.80
1956;DHT22;978;48.314;11.562;2022-08-19T16:18:26;22.80;87.80
1956;DHT22;978;48.314;11.562;2022-08-19T16:20:53;22.80;87.70